Time;durP1;ratioP1;P1;durP2;ratioP2;P2;SDS_P1;SDS_P2;PMS_P1;PMS_P2;Temp;Humidity;BMP_temperature;BMP_pressure;BME280_temperature;BME280_humidity;BME280_pressure;Samples;Min_cycle;Max_cycle;Signal;HPM_P1;HPM_P2
2022/09/16 00:02:14;;;;;;;5.00;4.80;;;;;;;12.24;100.00;100608.00;6055722;23;20065;-69
2022/09/16 00:04:40;;;;;;;5.20;4.90;;;;;;;12.28;100.00;100614.78;6053648;23;20086;-69
2022/09/16 00:07:07;;;;;;;4.47;4.28;;;;;;;11.89;100.00;100545.25;6050370;23;20034;-69
2022/09/16 00:09:36;;;;;;;4.60;4.40;;;;;;;12.24;100.00;100605.38;6051103;23;20024;-69
2022/09/16 00:12:06;;;;;;;4.63;4.43;;;;;;;12.24;100.00;100593.06;6052974;23;20033;-69
2022/09/16 00:14:33;;;;;;;4.60;4.40;;;;;;;12.14;100.00;100586.66;6050795;23;20026;-69
2022/09/16 00:16:59;;;;;;;6.15;5.78;;;;;;;11.70;100.00;100512.09;6044912;23;20022;-69
2022/09/16 00:19:25;;;;;;;4.70;4.50;;;;;;;11.72;100.00;100512.03;6048576;23;20027;-69
2022/09/16 00:21:52;;;;;;;4.80;4.50;;;;;;;12.21;100.00;100603.78;6052762;23;20091;-69
2022/09/16 00:24:18;;;;;;;5.00;4.57;;;;;;;12.06;100.00;100567.88;6049809;23;21855;-69
2022/09/16 00:26:45;;;;;;;4.68;4.47;;;;;;;11.78;100.00;100530.06;6069762;23;20240;-68
2022/09/16 00:29:11;;;;;;;6.35;6.05;;;;;;;12.02;100.00;100569.00;6044959;23;20021;-69
2022/09/16 00:31:37;;;;;;;4.53;4.32;;;;;;;12.13;100.00;100592.88;6054154;23;20030;-69
2022/09/16 00:34:04;;;;;;;6.03;5.72;;;;;;;12.03;100.00;100581.19;6051902;23;20018;-68
2022/09/16 00:36:31;;;;;;;6.32;4.40;;;;;;;12.07;100.00;100601.16;6064574;23;20032;-69
2022/09/16 00:38:57;;;;;;;5.00;4.78;;;;;;;11.17;100.00;100476.72;6050219;23;20017;-68
2022/09/16 00:41:27;;;;;;;5.00;4.60;;;;;;;11.85;100.00;100607.66;6059943;23;20022;-68
2022/09/16 00:43:59;;;;;;;5.03;4.60;;;;;;;11.83;100.00;100601.63;6051638;23;20026;-69
2022/09/16 00:46:32;;;;;;;5.47;5.00;;;;;;;10.45;100.00;100405.56;6052145;23;20022;-68
2022/09/16 00:49:16;;;;;;;5.75;5.50;;;;;;;11.70;100.00;100600.66;6030417;23;20157;-68
2022/09/16 00:51:46;;;;;;;5.38;4.97;;;;;;;11.64;100.00;100616.78;6058218;23;20022;-68
2022/09/16 00:54:16;;;;;;;5.65;5.35;;;;;;;11.32;100.00;100564.28;6049180;23;20033;-68
2022/09/16 00:56:46;;;;;;;5.00;4.70;;;;;;;11.61;100.00;100609.09;6059379;23;20562;-69
2022/09/16 00:59:25;;;;;;;5.68;5.35;;;;;;;11.57;100.00;100611.03;6038186;23;20030;-67
2022/09/16 01:01:54;;;;;;;12.15;4.72;;;;;;;11.51;100.00;100601.72;6055448;23;20061;-68
2022/09/16 01:04:31;;;;;;;4.95;4.75;;;;;;;11.40;100.00;100598.03;6048248;23;20085;-68
2022/09/16 01:06:58;;;;;;;5.75;5.47;;;;;;;10.41;100.00;100432.06;6055531;23;20025;-68
2022/09/16 01:09:26;;;;;;;4.55;4.35;;;;;;;11.42;100.00;100602.25;6045437;23;20420;-69
2022/09/16 01:11:52;;;;;;;5.03;4.72;;;;;;;10.79;100.00;100508.66;6063193;23;20030;-68
2022/09/16 01:17:36;;;;;;;6.28;5.97;;;;;;;11.46;100.00;100602.91;6055600;23;20003;-68
2022/09/16 01:20:40;;;;;;;5.95;5.68;;;;;;;11.49;100.00;100605.38;6045390;23;20023;-68
2022/09/16 01:23:28;;;;;;;5.00;4.60;;;;;;;11.53;100.00;100604.28;6052235;23;20038;-68
2022/09/16 01:26:24;;;;;;;4.63;4.43;;;;;;;11.36;100.00;100560.56;6054966;23;20409;-70
2022/09/16 01:29:19;;;;;;;4.60;4.38;;;;;;;10.26;100.00;100389.13;6054854;23;20021;-69
2022/09/16 01:32:10;;;;;;;4.70;4.50;;;;;;;11.68;100.00;100595.47;6049730;23;20018;-68
2022/09/16 01:35:04;;;;;;;4.65;4.35;;;;;;;11.72;100.00;100590.88;6043376;23;20038;-69
2022/09/16 01:37:36;;;;;;;4.45;4.25;;;;;;;11.74;100.00;100583.75;6043706;23;20014;-69
2022/09/16 01:40:20;;;;;;;4.57;4.38;;;;;;;11.79;100.00;100586.97;6047891;23;20030;-69
2022/09/16 01:42:59;;;;;;;4.82;4.63;;;;;;;11.82;100.00;100578.06;6053872;23;20620;-69
2022/09/16 01:45:45;;;;;;;8.60;4.75;;;;;;;11.83;100.00;100577.97;6052042;23;20826;-69
2022/09/16 01:48:23;;;;;;;6.60;6.25;;;;;;;11.58;100.00;100539.97;6041715;23;20369;-69
2022/09/16 01:51:10;;;;;;;5.03;4.72;;;;;;;11.37;100.00;100496.56;6058878;23;20014;-69
2022/09/16 01:53:45;;;;;;;5.10;4.80;;;;;;;11.83;100.00;100585.84;6043261;23;20019;-68
2022/09/16 01:56:40;;;;;;;6.35;6.05;;;;;;;11.53;100.00;100523.63;6059812;23;20042;-69
2022/09/16 01:59:09;;;;;;;6.35;5.97;;;;;;;11.93;100.00;100584.41;6034122;23;20022;-69
2022/09/16 02:01:44;;;;;;;4.90;4.68;;;;;;;11.95;100.00;100574.63;6056776;23;20014;-69
2022/09/16 02:04:20;;;;;;;7.10;6.60;;;;;;;11.67;100.00;100550.91;6029418;23;20076;-68
2022/09/16 02:06:48;;;;;;;5.13;4.72;;;;;;;11.36;100.00;100487.00;6056794;23;20526;-68
2022/09/16 02:09:23;;;;;;;5.72;5.43;;;;;;;11.71;100.00;100555.88;6054965;23;20038;-68
2022/09/16 02:11:53;;;;;;;5.18;4.60;;;;;;;11.32;100.00;100496.81;6056716;23;20516;-68
2022/09/16 02:14:25;;;;;;;5.47;5.18;;;;;;;11.89;100.00;100575.00;6048570;23;20082;-69
2022/09/16 02:17:00;;;;;;;5.35;4.85;;;;;;;11.87;100.00;100566.34;6054773;23;20081;-69
2022/09/16 02:19:56;;;;;;;4.85;4.55;;;;;;;11.97;100.00;100577.19;6041213;23;20076;-68
2022/09/16 02:22:38;;;;;;;5.00;4.72;;;;;;;11.64;100.00;100512.47;6028395;23;20073;-68
2022/09/16 02:25:08;;;;;;;6.05;5.75;;;;;;;11.71;100.00;100528.75;6051634;23;20026;-69
2022/09/16 02:27:37;;;;;;;4.63;4.43;;;;;;;10.76;100.00;100404.69;6052129;23;20014;-69
2022/09/16 02:30:15;;;;;;;6.47;6.10;;;;;;;11.57;100.00;100498.88;6045488;23;20034;-69
2022/09/16 02:32:46;;;;;;;5.20;4.70;;;;;;;12.08;100.00;100564.22;6021073;23;20098;-69
2022/09/16 02:35:16;;;;;;;4.70;4.50;;;;;;;12.08;100.00;100564.22;6049792;23;20043;-68
2022/09/16 02:37:48;;;;;;;5.10;4.70;;;;;;;11.87;100.00;100529.53;6045651;23;20030;-68
2022/09/16 02:40:33;;;;;;;5.43;5.07;;;;;;;11.75;100.00;100507.44;6046501;23;20018;-69
2022/09/16 02:43:01;;;;;;;5.93;5.43;;;;;;;12.00;100.00;100558.56;6058081;23;20122;-68
2022/09/16 02:45:43;;;;;;;6.30;4.80;;;;;;;11.80;100.00;100515.03;6049517;23;20037;-68
2022/09/16 02:48:19;;;;;;;6.40;6.10;;;;;;;11.82;100.00;100531.56;6048556;23;20424;-68
2022/09/16 02:51:19;;;;;;;5.10;4.90;;;;;;;11.32;100.00;100453.94;6030159;23;20014;-68
2022/09/16 02:53:55;;;;;;;5.45;5.15;;;;;;;11.98;100.00;100552.56;6042698;23;20018;-68
2022/09/16 02:56:28;;;;;;;5.00;4.70;;;;;;;11.93;100.00;100546.75;6051260;23;20034;-67
2022/09/16 02:58:55;;;;;;;5.03;4.80;;;;;;;11.40;100.00;100470.09;6053997;23;20015;-68
2022/09/16 03:01:23;;;;;;;4.78;4.57;;;;;;;11.74;100.00;100533.81;6052716;23;20026;-67
2022/09/16 03:03:54;;;;;;;4.88;4.68;;;;;;;11.85;100.00;100576.09;6028047;23;20029;-68
2022/09/16 03:06:24;;;;;;;4.90;4.70;;;;;;;10.97;100.00;100407.81;6058575;23;20022;-68
2022/09/16 03:08:53;;;;;;;5.70;5.20;;;;;;;11.78;100.00;100551.94;6032997;23;20065;-68
2022/09/16 03:11:31;;;;;;;4.63;4.43;;;;;;;11.69;100.00;100547.25;6041691;23;19999;-69
2022/09/16 03:14:17;;;;;;;5.32;5.05;;;;;;;11.57;100.00;100543.53;6060458;23;20069;-70
2022/09/16 03:17:02;;;;;;;4.50;4.30;;;;;;;11.47;100.00;100547.66;6044306;23;20026;-68
2022/09/16 03:19:55;;;;;;;4.47;4.28;;;;;;;11.36;100.00;100550.03;6060046;23;20026;-68
2022/09/16 03:22:50;;;;;;;5.10;4.78;;;;;;;11.12;100.00;100516.38;6038892;23;20045;-68
2022/09/16 03:25:41;;;;;;;4.97;4.75;;;;;;;11.21;100.00;100540.44;6039810;23;20677;-68
2022/09/16 03:28:17;;;;;;;6.82;6.30;;;;;;;11.18;100.00;100542.31;6027246;23;20019;-68
2022/09/16 03:31:05;;;;;;;4.45;4.25;;;;;;;11.20;100.00;100541.34;6057294;23;20271;-68
2022/09/16 03:33:41;;;;;;;5.13;4.82;;;;;;;10.84;100.00;100485.59;6035129;23;20043;-68
2022/09/16 03:36:13;;;;;;;6.65;6.30;;;;;;;11.13;100.00;100540.88;6059227;23;20030;-70
2022/09/16 03:38:40;;;;;;;4.65;4.45;;;;;;;10.90;100.00;100523.78;6028333;23;20015;-70
2022/09/16 03:41:08;;;;;;;6.25;5.95;;;;;;;10.51;100.00;100448.97;6056975;23;20038;-69
2022/09/16 03:43:35;;;;;;;5.05;4.80;;;;;;;10.65;100.00;100470.03;6037285;23;20069;-70
2022/09/16 03:46:01;;;;;;;5.68;5.43;;;;;;;11.08;100.00;100549.00;6055203;23;20034;-69
2022/09/16 03:48:28;;;;;;;4.57;4.38;;;;;;;10.49;100.00;100445.59;6041722;23;20015;-69
2022/09/16 03:50:54;;;;;;;4.90;4.70;;;;;;;11.09;100.00;100536.72;6057274;23;20018;-70
2022/09/16 03:53:20;;;;;;;5.20;4.90;;;;;;;11.11;100.00;100530.44;6049710;23;20052;-68
2022/09/16 03:55:49;;;;;;;5.20;5.00;;;;;;;11.15;100.00;100536.38;6053647;23;20412;-70
2022/09/16 03:58:15;;;;;;;6.60;6.10;;;;;;;10.71;100.00;100453.94;6053876;23;20017;-69
2022/09/16 04:00:41;;;;;;;5.63;5.32;;;;;;;11.29;100.00;100530.34;6054511;23;20014;-69
2022/09/16 04:03:08;;;;;;;9.38;8.52;;;;;;;10.89;100.00;100462.56;6046401;23;20014;-69
2022/09/16 04:05:34;;;;;;;6.47;6.07;;;;;;;11.27;100.00;100514.66;6033026;23;20048;-69
2022/09/16 04:08:01;;;;;;;6.60;5.93;;;;;;;11.30;100.00;100524.13;6026763;23;20072;-69
2022/09/16 04:10:27;;;;;;;6.90;6.30;;;;;;;10.34;100.00;100377.31;6059825;23;20564;-70
2022/09/16 04:12:57;;;;;;;6.68;6.07;;;;;;;10.64;100.00;100433.38;6050543;23;20638;-68
2022/09/16 04:15:23;;;;;;;6.07;5.68;;;;;;;11.16;100.00;100522.28;6060909;23;20031;-69
2022/09/16 04:17:50;;;;;;;6.53;6.13;;;;;;;11.15;100.00;100520.63;6044758;23;20024;-68
2022/09/16 04:20:16;;;;;;;6.13;5.63;;;;;;;11.20;100.00;100515.09;6059972;23;20082;-69
2022/09/16 04:22:43;;;;;;;5.38;5.07;;;;;;;11.23;100.00;100507.06;6051007;23;20030;-69
2022/09/16 04:25:09;;;;;;;6.40;6.03;;;;;;;11.25;100.00;100505.19;6061457;23;20033;-70
2022/09/16 04:27:35;;;;;;;5.57;5.28;;;;;;;11.12;100.00;100492.72;6031123;23;20027;-69
2022/09/16 04:30:02;;;;;;;5.80;5.53;;;;;;;9.72;100.00;100256.66;6050140;23;20076;-69
2022/09/16 04:32:29;;;;;;;9.82;5.75;;;;;;;10.80;100.00;100442.06;6039539;23;20632;-69
2022/09/16 04:34:55;;;;;;;5.93;5.45;;;;;;;11.15;100.00;100502.22;6049830;23;20018;-70
2022/09/16 04:37:21;;;;;;;4.70;4.50;;;;;;;10.74;100.00;100458.16;6053946;23;20022;-69
2022/09/16 04:39:48;;;;;;;4.55;4.35;;;;;;;10.43;100.00;100402.19;6061154;23;20072;-69
2022/09/16 04:42:14;;;;;;;5.80;5.50;;;;;;;11.07;100.00;100512.34;6047294;23;20053;-69
2022/09/16 04:44:40;;;;;;;5.07;4.78;;;;;;;11.01;100.00;100510.91;6006731;23;20015;-69
2022/09/16 04:47:07;;;;;;;12.23;6.47;;;;;;;10.33;100.00;100422.84;5992976;23;20088;-69
2022/09/16 04:49:33;;;;;;;5.07;4.68;;;;;;;10.98;100.00;100518.94;6036100;23;20034;-70
2022/09/16 04:52:00;;;;;;;6.28;5.95;;;;;;;10.96;100.00;100523.44;6024947;23;20015;-68
2022/09/16 04:54:26;;;;;;;5.25;4.95;;;;;;;10.97;100.00;100509.38;6032796;23;20038;-69
2022/09/16 04:56:53;;;;;;;4.80;4.60;;;;;;;11.01;100.00;100512.69;6008259;23;20026;-69
2022/09/16 04:59:19;;;;;;;4.68;4.47;;;;;;;10.89;100.00;100506.34;6017177;23;20927;-70
2022/09/16 05:01:46;;;;;;;4.80;4.60;;;;;;;10.92;100.00;100501.75;6030081;23;20023;-69
2022/09/16 05:04:12;;;;;;;4.82;4.63;;;;;;;11.04;100.00;100515.13;5995319;23;20027;-69
2022/09/16 05:06:40;;;;;;;5.13;4.93;;;;;;;11.04;100.00;100512.50;6019194;23;20471;-69
2022/09/16 05:09:09;;;;;;;6.53;6.22;;;;;;;11.11;100.00;100511.22;6029197;23;20081;-69
2022/09/16 05:11:37;;;;;;;11.18;5.55;;;;;;;11.13;100.00;100512.81;6020937;23;20911;-69
2022/09/16 05:14:06;;;;;;;5.68;5.18;;;;;;;11.21;100.00;100515.00;6015263;23;20022;-70
2022/09/16 05:16:33;;;;;;;4.78;4.57;;;;;;;11.31;100.00;100524.03;6015246;23;20505;-69
2022/09/16 05:19:03;;;;;;;5.20;4.97;;;;;;;10.70;100.00;100407.63;6031644;23;20023;-69
2022/09/16 05:21:33;;;;;;;5.55;4.97;;;;;;;11.34;100.00;100523.00;6023279;23;20337;-70
2022/09/16 05:24:01;;;;;;;5.60;5.35;;;;;;;11.10;100.00;100470.97;6024496;23;20003;-70
2022/09/16 05:26:30;;;;;;;4.88;4.68;;;;;;;11.35;100.00;100506.34;6032713;23;20030;-70
2022/09/16 05:29:05;;;;;;;4.95;4.75;;;;;;;11.04;100.00;100478.34;6001165;23;20019;-70
2022/09/16 05:31:35;;;;;;;4.90;4.60;;;;;;;11.33;100.00;100519.53;6019308;23;20015;-71
2022/09/16 05:34:05;;;;;;;5.90;5.60;;;;;;;11.30;100.00;100503.13;6029164;23;20014;-70
2022/09/16 05:36:34;;;;;;;4.35;4.15;;;;;;;11.42;100.00;100518.16;6021690;23;20031;-70
2022/09/16 05:39:01;;;;;;;5.85;5.55;;;;;;;11.44;100.00;100539.94;6029292;23;20666;-71
2022/09/16 05:41:47;;;;;;;4.57;4.38;;;;;;;11.47;100.00;100531.03;6021860;23;20038;-70
2022/09/16 05:44:14;;;;;;;6.32;5.88;;;;;;;11.48;100.00;100525.69;6057653;23;20040;-70
2022/09/16 05:46:40;;;;;;;4.50;4.30;;;;;;;11.36;100.00;100494.88;6056164;23;20027;-70
2022/09/16 05:49:07;;;;;;;5.93;5.63;;;;;;;11.05;100.00;100446.75;6045124;23;20112;-70
2022/09/16 05:51:36;;;;;;;4.95;4.75;;;;;;;11.40;100.00;100492.91;6070074;23;20434;-70
2022/09/16 05:54:03;;;;;;;6.25;5.95;;;;;;;11.58;100.00;100521.56;5998617;23;20018;-70
2022/09/16 05:56:30;;;;;;;4.90;4.60;;;;;;;11.65;100.00;100524.69;6029908;23;20026;-70
2022/09/16 05:58:58;;;;;;;4.70;4.50;;;;;;;10.42;100.00;100318.31;6054791;23;20010;-69
2022/09/16 06:01:30;;;;;;;5.55;5.07;;;;;;;11.73;100.00;100524.25;6062180;23;20029;-70
2022/09/16 06:04:01;;;;;;;5.45;5.20;;;;;;;11.75;100.00;100519.75;6057204;23;20011;-70
2022/09/16 06:06:30;;;;;;;5.45;5.13;;;;;;;11.83;100.00;100521.91;6065975;23;20113;-70
2022/09/16 06:08:58;;;;;;;4.88;4.57;;;;;;;11.76;100.00;100517.00;6067055;23;20030;-70
2022/09/16 06:11:26;;;;;;;4.80;4.60;;;;;;;11.57;100.00;100484.88;6046454;23;20583;-70
2022/09/16 06:13:54;;;;;;;5.43;5.18;;;;;;;11.93;100.00;100518.66;6051174;23;20088;-70
2022/09/16 06:16:24;;;;;;;4.70;4.50;;;;;;;12.00;100.00;100529.63;6048948;23;20257;-69
2022/09/16 06:18:52;;;;;;;4.57;4.38;;;;;;;12.10;100.00;100530.75;6059283;23;20091;-69
2022/09/16 06:21:18;;;;;;;5.30;5.00;;;;;;;11.74;100.00;100460.19;6072742;23;20823;-69
2022/09/16 06:23:45;;;;;;;4.80;4.60;;;;;;;11.98;100.00;100479.75;6067802;23;20364;-68
2022/09/16 06:26:14;;;;;;;4.70;4.47;;;;;;;12.34;100.00;100535.47;6075002;23;20030;-69
2022/09/16 06:28:41;;;;;;;5.03;4.72;;;;;;;12.38;100.00;100544.84;6051797;23;20034;-68
2022/09/16 06:31:16;;;;;;;6.15;5.82;;;;;;;12.37;100.00;100533.50;6049147;23;20078;-68
2022/09/16 06:33:43;;;;;;;5.78;5.47;;;;;;;12.32;100.00;100529.44;6058375;23;20030;-68
2022/09/16 06:36:22;;;;;;;5.90;5.60;;;;;;;12.40;100.00;100529.81;6065316;23;20061;-68
2022/09/16 06:38:50;;;;;;;6.43;5.20;;;;;;;12.49;100.00;100537.16;6068950;23;20081;-68
2022/09/16 06:41:18;;;;;;;5.57;5.35;;;;;;;12.46;100.00;100516.25;6068322;23;20790;-69
2022/09/16 06:43:45;;;;;;;5.30;5.00;;;;;;;12.45;100.00;100521.63;6069383;23;20454;-68
2022/09/16 06:46:17;;;;;;;7.20;6.78;;;;;;;12.60;100.00;100528.56;6063681;23;20037;-68
2022/09/16 06:48:45;;;;;;;;;;;;;;;12.66;100.00;100535.22;6043587;23;20423;-69
2022/09/16 06:51:14;;;;;;;7.47;7.07;;;;;;;12.31;100.00;100477.78;6062908;23;19906;-69
2022/09/16 06:53:41;;;;;;;5.22;4.90;;;;;;;12.64;100.00;100513.41;6071186;23;20115;-70
2022/09/16 06:56:11;;;;;;;7.38;6.75;;;;;;;12.66;100.00;100520.28;6063309;23;20088;-68
2022/09/16 06:58:40;;;;;;;5.20;4.80;;;;;;;12.79;100.00;100536.16;6066468;23;20034;-70
2022/09/16 07:01:27;;;;;;;7.00;6.60;;;;;;;12.89;100.00;100533.75;6055493;23;20030;-70
2022/09/16 07:03:56;;;;;;;10.50;5.05;;;;;;;12.76;100.00;100521.38;6064456;23;20030;-68
2022/09/16 07:06:26;;;;;;;5.43;5.13;;;;;;;12.89;100.00;100525.84;6043949;23;20868;-68
2022/09/16 07:09:13;;;;;;;5.88;5.57;;;;;;;11.95;100.00;100377.41;6045914;23;20453;-70
2022/09/16 07:11:39;;;;;;;5.03;4.82;;;;;;;12.92;100.00;100542.28;6067985;23;20055;-69
2022/09/16 07:14:07;;;;;;;5.00;4.70;;;;;;;12.91;100.00;100545.03;6054881;23;20074;-69
2022/09/16 07:16:33;;;;;;;4.80;4.60;;;;;;;12.87;100.00;100533.00;6045931;23;20039;-69
2022/09/16 07:18:59;;;;;;;9.65;6.15;;;;;;;12.86;100.00;100534.78;6046790;23;20049;-69
2022/09/16 07:21:28;;;;;;;5.55;5.25;;;;;;;12.87;100.00;100533.88;6041827;23;20022;-69
2022/09/16 07:23:59;;;;;;;5.28;4.97;;;;;;;12.91;100.00;100539.75;6053333;23;20030;-69
2022/09/16 07:26:29;;;;;;;4.82;4.63;;;;;;;12.88;100.00;100543.44;6052704;23;20021;-69
2022/09/16 07:28:58;;;;;;;5.47;5.18;;;;;;;12.97;100.00;100544.66;6049139;23;20088;-69
2022/09/16 07:31:28;;;;;;;7.35;4.90;;;;;;;13.07;100.00;100550.16;6044835;23;20078;-69
2022/09/16 07:33:56;;;;;;;4.90;4.70;;;;;;;13.05;100.00;100545.00;6053989;23;20443;-68
2022/09/16 07:36:32;;;;;;;4.78;4.57;;;;;;;13.13;100.00;100547.97;6052812;23;20457;-69
2022/09/16 07:38:59;;;;;;;6.20;5.90;;;;;;;13.20;100.00;100553.69;6053156;23;20026;-71
2022/09/16 07:41:28;;;;;;;4.95;4.65;;;;;;;13.31;100.00;100561.78;6037148;23;20022;-70
2022/09/16 07:43:57;;;;;;;4.95;4.75;;;;;;;12.95;100.00;100492.06;6031942;23;20026;-70
2022/09/16 07:46:26;;;;;;;10.32;4.90;;;;;;;13.52;100.00;100550.75;6037327;23;20035;-71
2022/09/16 07:48:53;;;;;;;5.40;5.00;;;;;;;13.30;100.00;100543.41;6029549;23;20035;-69
2022/09/16 07:51:23;;;;;;;5.00;4.70;;;;;;;12.89;100.00;100481.94;6071149;23;20033;-69
2022/09/16 07:53:54;;;;;;;8.52;5.40;;;;;;;13.22;100.00;100561.50;6053661;23;20030;-69
2022/09/16 07:56:24;;;;;;;5.47;5.07;;;;;;;13.23;100.00;100557.91;6026454;23;20035;-69
2022/09/16 07:58:52;;;;;;;6.75;6.35;;;;;;;13.35;100.00;100560.63;6052459;23;20042;-69
2022/09/16 08:01:18;;;;;;;5.22;4.93;;;;;;;13.51;100.00;100578.03;6057901;23;20080;-69
2022/09/16 08:03:46;;;;;;;5.90;5.60;;;;;;;13.90;100.00;100569.25;6058398;23;20018;-69
2022/09/16 08:06:16;;;;;;;7.30;4.68;;;;;;;14.51;100.00;100574.72;6055476;23;20096;-70
2022/09/16 08:08:43;;;;;;;5.38;5.13;;;;;;;15.05;100.00;100555.00;6050261;23;20076;-69
2022/09/16 08:11:13;;;;;;;10.00;4.80;;;;;;;15.23;100.00;100552.81;6030253;23;20026;-69
2022/09/16 08:13:40;;;;;;;5.47;5.10;;;;;;;15.30;100.00;100569.91;6058930;23;20039;-69
2022/09/16 08:16:10;;;;;;;5.15;4.85;;;;;;;15.27;100.00;100566.66;6073293;23;20026;-69
2022/09/16 08:18:37;;;;;;;5.43;4.90;;;;;;;14.62;100.00;100476.25;6068073;23;20053;-69
2022/09/16 08:21:06;;;;;;;5.57;5.18;;;;;;;15.10;100.00;100576.69;6052879;23;20021;-69
2022/09/16 08:23:34;;;;;;;8.43;5.60;;;;;;;15.12;99.86;100574.75;6058583;23;20080;-68
2022/09/16 08:26:01;;;;;;;6.57;6.00;;;;;;;15.03;100.00;100578.06;6063517;23;20774;-69
2022/09/16 08:28:28;;;;;;;5.25;4.93;;;;;;;14.91;100.00;100566.63;6028280;23;20117;-69
2022/09/16 08:31:16;;;;;;;4.93;4.72;;;;;;;14.29;100.00;100485.63;6045929;23;20100;-68
2022/09/16 08:33:43;;;;;;;5.03;4.82;;;;;;;14.98;100.00;100584.66;6040112;23;20022;-68
2022/09/16 08:36:14;;;;;;;5.30;5.10;;;;;;;14.48;98.63;100519.47;6039853;23;20022;-69
2022/09/16 08:38:42;;;;;;;4.90;4.70;;;;;;;15.12;99.81;100584.50;6024594;23;20023;-69
2022/09/16 08:41:12;;;;;;;5.38;5.10;;;;;;;15.29;99.40;100594.66;6046740;23;20346;-68
2022/09/16 08:43:44;;;;;;;4.78;4.55;;;;;;;15.52;98.60;100598.25;6034230;23;20038;-69
2022/09/16 08:46:22;;;;;;;5.10;4.90;;;;;;;15.18;95.53;100510.03;6030582;23;20068;-69
2022/09/16 08:48:59;;;;;;;6.70;6.32;;;;;;;15.80;90.63;100593.56;6021563;23;20111;-69
2022/09/16 08:51:27;;;;;;;5.30;5.00;;;;;;;16.00;90.44;100585.94;6025139;23;20034;-69
2022/09/16 08:54:02;;;;;;;6.53;6.22;;;;;;;15.91;88.58;100560.97;6021058;23;20073;-70
2022/09/16 08:56:33;;;;;;;5.20;5.00;;;;;;;16.21;87.70;100562.22;6019229;23;20019;-76
2022/09/16 08:59:01;;;;;;;7.32;5.28;;;;;;;16.28;85.45;100527.19;6021357;23;20908;-70
2022/09/16 09:01:51;;;;;;;6.60;5.15;;;;;;;16.99;84.04;100574.56;6029808;23;20038;-70
2022/09/16 09:04:19;;;;;;;5.25;5.03;;;;;;;17.16;80.36;100586.47;5968091;23;20023;-71
2022/09/16 09:07:06;;;;;;;6.35;6.05;;;;;;;16.82;81.92;100586.56;6011390;23;20037;-71
2022/09/16 09:09:55;;;;;;;8.13;5.30;;;;;;;16.87;83.94;100591.47;6009857;23;20023;-72
2022/09/16 09:12:31;;;;;;;5.65;5.20;;;;;;;16.26;85.62;100447.03;6013658;23;20670;-71
2022/09/16 09:15:30;;;;;;;6.47;6.18;;;;;;;15.62;82.76;100401.84;6033693;23;20021;-71
2022/09/16 09:17:56;;;;;;;7.57;6.35;;;;;;;16.83;84.73;100605.94;6014420;23;20587;-71
2022/09/16 09:20:48;;;;;;;5.40;5.00;;;;;;;16.93;84.83;100602.41;6033228;23;20077;-71
2022/09/16 09:23:14;;;;;;;5.43;5.03;;;;;;;16.79;84.16;100604.47;6030398;23;20019;-71
2022/09/16 09:25:50;;;;;;;5.35;5.03;;;;;;;16.73;83.84;100611.09;6033535;23;20038;-73
2022/09/16 09:28:30;;;;;;;5.40;5.10;;;;;;;16.58;83.33;100552.22;6028356;23;20834;-71
2022/09/16 09:31:34;;;;;;;6.35;6.05;;;;;;;16.89;80.40;100603.63;6024591;23;20085;-70
2022/09/16 09:34:20;;;;;;;5.90;5.40;;;;;;;16.69;80.83;100551.34;6021050;23;20018;-71
2022/09/16 09:37:27;;;;;;;5.93;5.65;;;;;;;17.38;78.43;100606.78;6015789;23;20302;-71
2022/09/16 09:39:56;;;;;;;6.40;6.10;;;;;;;17.69;75.18;100607.69;5999074;23;20011;-72
2022/09/16 09:42:31;;;;;;;5.63;5.32;;;;;;;17.56;74.34;100604.41;6037029;23;20037;-71
2022/09/16 09:45:03;;;;;;;6.60;6.10;;;;;;;17.51;75.37;100599.47;6022570;23;20045;-71
2022/09/16 09:47:40;;;;;;;5.20;4.90;;;;;;;16.68;75.63;100529.31;6049027;23;20042;-71
2022/09/16 09:50:41;;;;;;;4.90;4.70;;;;;;;17.32;77.19;100607.28;6028180;23;20072;-71
2022/09/16 09:53:10;;;;;;;5.40;5.10;;;;;;;17.57;75.12;100611.38;6071785;23;20447;-71
2022/09/16 09:55:39;;;;;;;5.10;4.90;;;;;;;17.09;74.04;100545.50;6022801;23;20069;-71
2022/09/16 09:58:16;;;;;;;5.63;5.22;;;;;;;17.28;72.86;100613.78;6063987;23;20792;-71
2022/09/16 10:00:42;;;;;;;5.00;4.80;;;;;;;17.46;74.46;100609.63;6023107;23;20021;-70
2022/09/16 10:03:13;;;;;;;4.97;4.68;;;;;;;17.63;75.57;100600.25;6028430;23;20562;-69
2022/09/16 10:05:40;;;;;;;5.50;5.20;;;;;;;17.63;72.32;100583.50;6028683;23;20463;-70
2022/09/16 10:08:18;;;;;;;5.07;4.88;;;;;;;18.11;71.51;100575.03;6057774;23;20438;-70
2022/09/16 10:10:51;;;;;;;5.57;5.30;;;;;;;18.31;68.97;100557.38;6006832;23;20014;-70
2022/09/16 10:13:18;;;;;;;5.10;4.90;;;;;;;18.25;69.90;100494.97;6055952;23;20026;-70
2022/09/16 10:15:46;;;;;;;6.32;6.03;;;;;;;19.18;69.70;100577.19;6022295;23;20018;-70
2022/09/16 10:18:24;;;;;;;5.30;5.03;;;;;;;18.66;67.94;100578.19;6068858;23;20021;-70
2022/09/16 10:21:17;;;;;;;8.18;7.78;;;;;;;18.46;70.05;100581.75;6025094;23;21300;-70
2022/09/16 10:23:56;;;;;;;6.10;5.22;;;;;;;18.25;69.11;100593.28;6033989;23;20034;-70
2022/09/16 10:26:26;;;;;;;5.60;5.35;;;;;;;18.45;69.73;100591.53;6025987;23;20179;-71
2022/09/16 10:29:18;;;;;;;7.00;6.55;;;;;;;18.73;67.42;100579.31;6057352;23;20370;-71
2022/09/16 10:31:44;;;;;;;5.78;5.47;;;;;;;18.29;65.67;100519.47;6035242;23;20083;-70
2022/09/16 10:34:32;;;;;;;5.60;5.40;;;;;;;18.44;65.20;100525.25;6045916;23;20019;-69
2022/09/16 10:37:04;;;;;;;6.57;6.28;;;;;;;18.81;66.37;100578.69;6012670;23;20063;-69
2022/09/16 10:39:32;;;;;;;5.38;5.18;;;;;;;18.84;65.96;100562.47;6038035;23;20053;-69
2022/09/16 10:41:59;;;;;;;7.00;6.60;;;;;;;19.21;64.00;100560.97;6008047;23;20026;-72
2022/09/16 10:44:29;;;;;;;5.75;5.38;;;;;;;19.42;63.22;100542.19;6014549;23;20041;-69
2022/09/16 10:47:13;;;;;;;6.10;5.65;;;;;;;19.69;63.64;100566.25;5997466;23;20027;-70
2022/09/16 10:49:46;;;;;;;5.55;5.28;;;;;;;19.30;63.48;100563.63;6007396;23;20089;-71
2022/09/16 10:52:23;;;;;;;5.65;5.35;;;;;;;19.48;60.87;100571.75;5993050;23;20038;-70
2022/09/16 10:54:49;;;;;;;5.80;5.50;;;;;;;19.78;61.23;100558.41;6008717;23;20480;-70
2022/09/16 10:57:26;;;;;;;6.25;5.95;;;;;;;19.75;63.46;100553.41;5981170;23;20019;-71
2022/09/16 11:00:23;;;;;;;5.90;5.60;;;;;;;19.47;62.69;100564.75;5978877;23;20080;-70
2022/09/16 11:02:56;;;;;;;5.97;5.60;;;;;;;19.01;64.68;100523.72;5993503;23;20468;-71
2022/09/16 11:05:44;;;;;;;5.80;5.50;;;;;;;19.38;64.92;100557.59;6009463;23;20037;-71
2022/09/16 11:08:22;;;;;;;6.15;5.47;;;;;;;19.23;62.91;100493.31;6011464;23;21901;-70
2022/09/16 11:11:03;;;;;;;5.85;5.55;;;;;;;19.56;62.75;100493.00;6007919;23;20015;-70
2022/09/16 11:13:53;;;;;;;6.00;5.70;;;;;;;19.89;60.86;100572.41;5999484;23;20020;-70
2022/09/16 11:16:53;;;;;;;6.63;6.32;;;;;;;19.67;58.25;100493.69;6012267;23;21975;-70
2022/09/16 11:19:53;;;;;;;6.18;5.88;;;;;;;20.46;58.61;100564.34;6008710;23;20583;-70
2022/09/16 11:22:45;;;;;;;5.63;5.30;;;;;;;19.91;57.55;100550.97;5987750;23;20074;-70
2022/09/16 11:25:38;;;;;;;5.80;5.50;;;;;;;19.93;57.74;100498.41;6010789;23;20057;-71
2022/09/16 11:28:26;;;;;;;6.13;5.72;;;;;;;19.92;57.77;100555.31;6010026;23;20019;-71
2022/09/16 11:31:04;;;;;;;6.05;5.72;;;;;;;19.83;57.93;100501.09;5999021;23;20022;-70
2022/09/16 11:33:49;;;;;;;6.38;6.07;;;;;;;20.55;57.37;100556.44;6014975;23;20023;-70
2022/09/16 11:36:30;;;;;;;6.65;6.25;;;;;;;20.46;55.50;100528.88;5999917;23;20034;-70
2022/09/16 11:39:18;;;;;;;5.50;5.30;;;;;;;20.92;55.16;100567.91;6011789;23;20030;-71
2022/09/16 11:42:18;;;;;;;5.70;5.30;;;;;;;20.38;54.71;100507.44;6004266;23;20030;-71
2022/09/16 11:45:00;;;;;;;5.50;5.20;;;;;;;20.19;56.06;100577.69;6009526;23;20023;-70
2022/09/16 11:47:33;;;;;;;7.60;7.15;;;;;;;19.57;59.06;100593.19;5994448;23;20108;-70
2022/09/16 11:50:18;;;;;;;5.50;5.30;;;;;;;18.84;62.93;100588.19;6020951;23;20031;-71
2022/09/16 11:52:54;;;;;;;5.22;5.03;;;;;;;17.48;67.90;100617.44;5972968;23;20035;-70